Time;durP1;ratioP1;P1;durP2;ratioP2;P2;SDS_P1;SDS_P2;PMS_P1;PMS_P2;Temp;Humidity;BMP_temperature;BMP_pressure;BME280_temperature;BME280_humidity;BME280_pressure;Samples;Min_cycle;Max_cycle;Signal;HPM_P1;HPM_P2
2023/04/21 00:02:07;;;;;;;39.42;30.38;;;;;;;6.61;100.00;101358.75;5225893;28;20572;-65
2023/04/21 00:04:39;;;;;;;39.20;29.25;;;;;;;6.52;100.00;101359.25;5222235;28;20029;-65
2023/04/21 00:07:13;;;;;;;37.88;29.23;;;;;;;6.52;100.00;101358.38;5223846;28;20618;-65
2023/04/21 00:09:45;;;;;;;41.13;31.13;;;;;;;6.52;100.00;101359.25;5229652;28;20022;-65
2023/04/21 00:12:16;;;;;;;43.08;31.13;;;;;;;6.51;100.00;101348.72;5226736;28;20055;-65
2023/04/21 00:14:47;;;;;;;41.47;31.63;;;;;;;6.47;100.00;101350.69;5228770;28;20021;-65
2023/04/21 00:17:19;;;;;;;43.38;30.75;;;;;;;6.45;100.00;101339.28;5228025;28;20021;-66
2023/04/21 00:19:50;;;;;;;45.08;32.75;;;;;;;6.45;100.00;101340.16;5227553;28;20033;-65
2023/04/21 00:22:22;;;;;;;45.05;31.92;;;;;;;6.42;100.00;101332.38;5231094;28;20040;-66
2023/04/21 00:24:53;;;;;;;45.78;33.00;;;;;;;6.40;100.00;101336.00;5229005;28;20025;-66
2023/04/21 00:27:24;;;;;;;50.40;34.63;;;;;;;6.48;100.00;101334.69;5228701;28;20033;-65
2023/04/21 00:29:56;;;;;;;57.80;34.65;;;;;;;6.46;100.00;101328.63;5225604;28;20171;-66
2023/04/21 00:32:27;;;;;;;49.38;34.08;;;;;;;6.48;100.00;101325.88;5229100;28;20025;-65
2023/04/21 00:34:59;;;;;;;48.70;34.75;;;;;;;6.46;100.00;101328.63;5226908;28;20037;-66
2023/04/21 00:37:30;;;;;;;50.55;34.60;;;;;;;6.51;100.00;101323.06;5227228;28;20021;-66
2023/04/21 00:40:03;;;;;;;51.60;35.85;;;;;;;6.50;100.00;101337.28;5226717;28;20036;-66
2023/04/21 00:42:34;;;;;;;195.18;49.97;;;;;;;6.55;100.00;101326.41;5227105;28;20029;-66
2023/04/21 00:45:06;;;;;;;57.58;35.65;;;;;;;6.50;100.00;101315.19;5226001;28;20531;-66
2023/04/21 00:47:37;;;;;;;61.67;37.00;;;;;;;6.48;100.00;101317.91;5225382;28;20032;-66
2023/04/21 00:50:10;;;;;;;51.08;34.63;;;;;;;6.43;100.00;101327.91;5226013;28;20393;-66
2023/04/21 00:52:43;;;;;;;47.75;34.40;;;;;;;6.41;100.00;101333.28;5229205;28;20032;-66
2023/04/21 00:55:15;;;;;;;51.03;34.38;;;;;;;6.41;100.00;101335.09;5224953;28;20029;-66
2023/04/21 00:57:47;;;;;;;51.85;34.53;;;;;;;6.43;100.00;101328.75;5226566;28;20052;-66
2023/04/21 01:00:19;;;;;;;54.33;37.05;;;;;;;6.42;100.00;101329.72;5225995;28;20856;-66
2023/04/21 01:02:50;;;;;;;57.30;35.65;;;;;;;6.43;100.00;101326.13;5225627;28;20152;-67
2023/04/21 01:05:22;;;;;;;50.03;34.47;;;;;;;6.42;100.00;101329.72;5227747;28;20036;-66
2023/04/21 01:07:53;;;;;;;52.17;34.83;;;;;;;6.47;100.00;101329.47;5223701;28;20396;-67
2023/04/21 01:10:25;;;;;;;51.63;34.75;;;;;;;6.40;100.00;101320.13;5227002;28;20025;-67
2023/04/21 01:12:56;;;;;;;53.95;34.90;;;;;;;6.40;100.00;101315.66;5222721;28;20029;-67
2023/04/21 01:15:29;;;;;;;180.40;48.50;;;;;;;6.50;100.00;101316.06;5226662;28;20499;-67
2023/04/21 01:18:01;;;;;;;58.30;37.53;;;;;;;6.55;100.00;101319.31;5224604;28;20025;-67
2023/04/21 01:20:33;;;;;;;109.78;44.13;;;;;;;6.57;100.00;101308.63;5221620;28;20022;-67
2023/04/21 01:23:05;;;;;;;60.60;37.78;;;;;;;6.54;100.00;101306.13;5224547;28;20113;-68
2023/04/21 01:25:37;;;;;;;95.57;43.47;;;;;;;6.57;100.00;101295.38;5227193;28;20492;-68
2023/04/21 01:28:08;;;;;;;56.53;36.90;;;;;;;6.52;100.00;101300.06;5224050;28;20039;-68
2023/04/21 01:30:39;;;;;;;60.95;38.60;;;;;;;6.50;100.00;101301.94;5225924;28;20025;-68
2023/04/21 01:33:11;;;;;;;56.63;36.22;;;;;;;6.61;100.00;101296.94;5227774;28;20143;-68
2023/04/21 01:35:43;;;;;;;56.88;36.63;;;;;;;6.49;100.00;101287.84;5229411;28;20026;-68
2023/04/21 01:38:17;;;;;;;58.15;35.28;;;;;;;6.43;100.00;101293.47;5234072;28;20029;-68
2023/04/21 01:40:52;;;;;;;52.75;34.95;;;;;;;6.39;100.00;101290.09;5234016;28;20116;-68
2023/04/21 01:43:24;;;;;;;59.13;35.38;;;;;;;6.52;100.00;101294.75;5237443;28;20061;-68
2023/04/21 01:45:56;;;;;;;56.00;35.20;;;;;;;6.47;100.00;101289.72;5229413;28;20103;-67
2023/04/21 01:48:27;;;;;;;52.38;34.53;;;;;;;6.35;100.00;101288.56;5222393;28;20034;-67
2023/04/21 01:50:59;;;;;;;52.72;33.60;;;;;;;6.39;100.00;101279.50;5229954;28;20025;-67
2023/04/21 01:53:30;;;;;;;51.92;32.75;;;;;;;6.38;100.00;101269.81;5232919;28;20365;-67
2023/04/21 01:56:02;;;;;;;55.08;33.45;;;;;;;6.36;100.00;101274.34;5221318;28;20034;-67
2023/04/21 01:58:33;;;;;;;52.70;32.65;;;;;;;6.33;100.00;101265.69;5230889;28;20038;-67
2023/04/21 02:01:05;;;;;;;51.22;31.95;;;;;;;6.34;100.00;101259.47;5224980;28;21283;-67
2023/04/21 02:03:36;;;;;;;51.13;32.40;;;;;;;6.34;100.00;101259.47;5231530;28;20025;-68
2023/04/21 02:06:07;;;;;;;53.20;33.22;;;;;;;6.34;100.00;101251.53;5226166;28;20094;-67
2023/04/21 02:08:39;;;;;;;50.70;30.63;;;;;;;6.29;100.00;101227.94;5231268;28;20075;-68
2023/04/21 02:11:10;;;;;;;50.40;31.40;;;;;;;6.29;100.00;101238.53;5229117;28;20527;-67
2023/04/21 02:13:42;;;;;;;54.22;32.28;;;;;;;6.25;100.00;101247.56;5233083;28;20503;-67
2023/04/21 02:16:13;;;;;;;51.38;32.35;;;;;;;6.32;100.00;101250.75;5234417;28;20561;-67
2023/04/21 02:18:47;;;;;;;48.38;30.50;;;;;;;6.30;100.00;101249.97;5230680;28;20510;-67
2023/04/21 02:21:23;;;;;;;49.28;30.73;;;;;;;6.28;100.00;101248.25;5226317;28;20030;-67
2023/04/21 02:23:55;;;;;;;48.42;31.35;;;;;;;6.30;100.00;101237.56;5233520;28;20025;-67
2023/04/21 02:26:26;;;;;;;52.00;31.30;;;;;;;6.31;100.00;101233.13;5226804;28;20032;-67
2023/04/21 02:28:58;;;;;;;49.63;30.80;;;;;;;6.29;100.00;101243.84;5235855;28;20388;-67
2023/04/21 02:31:29;;;;;;;48.78;31.52;;;;;;;6.31;100.00;101236.66;5224297;28;20030;-67
2023/04/21 02:34:01;;;;;;;47.75;30.73;;;;;;;6.32;100.00;101232.22;5232732;28;20025;-67
2023/04/21 02:36:33;;;;;;;49.08;31.95;;;;;;;6.32;100.00;101233.06;5225203;28;20084;-67
2023/04/21 02:39:04;;;;;;;51.60;30.75;;;;;;;6.42;100.00;101239.59;5233616;28;20026;-67
2023/04/21 02:41:35;;;;;;;52.80;33.58;;;;;;;6.33;100.00;101234.78;5228614;28;20230;-67
2023/04/21 02:44:07;;;;;;;57.67;33.00;;;;;;;6.34;100.00;101235.63;5228378;28;20021;-67
2023/04/21 02:46:41;;;;;;;55.55;33.83;;;;;;;6.35;100.00;101240.84;5225787;28;20032;-67
2023/04/21 02:49:13;;;;;;;56.97;33.17;;;;;;;6.46;100.00;101237.63;5222304;28;20029;-67
2023/04/21 02:51:44;;;;;;;59.30;35.42;;;;;;;6.41;100.00;101232.56;5225839;28;20090;-67
2023/04/21 02:54:16;;;;;;;57.92;35.22;;;;;;;6.42;100.00;101234.31;5224758;28;20542;-67
2023/04/21 02:56:47;;;;;;;58.00;34.20;;;;;;;6.43;100.00;101228.03;5225698;28;20033;-67
2023/04/21 02:59:19;;;;;;;58.10;35.25;;;;;;;6.54;100.00;101237.22;5222196;28;20395;-67
2023/04/21 03:01:50;;;;;;;56.72;35.20;;;;;;;6.49;100.00;101232.16;5224346;28;20049;-67
2023/04/21 03:04:23;;;;;;;58.25;34.33;;;;;;;6.44;100.00;101231.53;5222905;28;20048;-67
2023/04/21 03:06:54;;;;;;;60.95;35.58;;;;;;;6.42;100.00;101218.41;5222166;28;20057;-67
2023/04/21 03:09:25;;;;;;;57.78;34.58;;;;;;;6.38;100.00;101224.78;5221895;28;20159;-67
2023/04/21 03:11:57;;;;;;;57.08;34.53;;;;;;;6.43;100.00;101219.25;5220901;28;20063;-67
2023/04/21 03:14:28;;;;;;;55.72;35.17;;;;;;;6.42;100.00;101221.06;5224243;28;20029;-67
2023/04/21 03:17:00;;;;;;;56.78;34.35;;;;;;;6.30;100.00;101220.84;5223886;28;20030;-68
2023/04/21 03:19:31;;;;;;;57.35;33.40;;;;;;;6.34;100.00;101223.22;5224305;28;20036;-67
2023/04/21 03:22:03;;;;;;;53.50;33.35;;;;;;;6.35;100.00;101222.31;5223240;28;20029;-67
2023/04/21 03:24:34;;;;;;;60.55;35.13;;;;;;;6.30;100.00;101229.63;5223656;28;20025;-67
2023/04/21 03:27:06;;;;;;;58.95;35.08;;;;;;;6.27;100.00;101221.81;5223030;28;20025;-67
2023/04/21 03:29:37;;;;;;;59.47;35.45;;;;;;;6.26;100.00;101225.44;5215426;28;20024;-67
2023/04/21 03:32:08;;;;;;;58.65;34.53;;;;;;;6.22;100.00;101221.22;5220429;28;20099;-67
2023/04/21 03:34:40;;;;;;;66.03;38.90;;;;;;;6.17;100.00;101217.97;5223259;28;20014;-67
2023/04/21 03:37:11;;;;;;;64.05;36.47;;;;;;;6.15;100.00;101214.53;5222485;28;20491;-67
2023/04/21 03:39:43;;;;;;;65.55;38.70;;;;;;;6.17;100.00;101221.44;5226124;28;20545;-67
2023/04/21 03:42:14;;;;;;;68.15;36.67;;;;;;;6.13;100.00;101208.47;5222270;28;20033;-67
2023/04/21 03:44:46;;;;;;;61.95;36.33;;;;;;;6.11;100.00;101213.81;5223848;28;20026;-66
2023/04/21 03:47:17;;;;;;;67.22;36.22;;;;;;;6.13;100.00;101211.09;5225920;28;20017;-67
2023/04/21 03:49:48;;;;;;;64.80;36.70;;;;;;;6.15;100.00;101215.38;5221836;28;20029;-67
2023/04/21 03:52:20;;;;;;;63.40;37.75;;;;;;;6.07;100.00;101213.13;5225978;28;20021;-67
2023/04/21 03:54:51;;;;;;;62.03;36.33;;;;;;;6.13;100.00;101219.91;5228398;28;20024;-67
2023/04/21 03:57:22;;;;;;;62.45;36.03;;;;;;;6.20;100.00;101225.75;5230105;28;20708;-67
2023/04/21 03:59:54;;;;;;;64.05;36.38;;;;;;;6.19;100.00;101224.88;5222131;28;20038;-67
2023/04/21 04:02:25;;;;;;;65.18;37.97;;;;;;;6.22;100.00;101223.88;5220874;28;20052;-67
2023/04/21 04:04:58;;;;;;;68.78;38.90;;;;;;;6.22;100.00;101215.94;5224563;28;20069;-67
2023/04/21 04:07:33;;;;;;;69.05;39.30;;;;;;;6.16;100.00;101213.63;5231119;28;20037;-67
2023/04/21 04:10:04;;;;;;;71.85;40.53;;;;;;;6.20;100.00;101215.16;5223608;28;20395;-66
2023/04/21 04:12:36;;;;;;;77.38;41.45;;;;;;;6.21;100.00;101223.03;5227090;28;20099;-67
2023/04/21 04:15:08;;;;;;;75.28;41.58;;;;;;;6.27;100.00;101220.06;5222178;28;20029;-67
2023/04/21 04:17:39;;;;;;;83.50;43.40;;;;;;;6.18;100.00;101217.88;5223971;28;20025;-67
2023/04/21 04:20:11;;;;;;;82.60;44.50;;;;;;;6.22;100.00;101215.94;5221706;28;20440;-67
2023/04/21 04:22:43;;;;;;;74.40;42.35;;;;;;;6.20;100.00;101213.34;5221187;28;20029;-66
2023/04/21 04:25:15;;;;;;;81.25;44.63;;;;;;;6.27;100.00;101206.81;5224136;28;20045;-67
2023/04/21 04:27:48;;;;;;;77.88;43.25;;;;;;;6.23;100.00;101212.31;5222230;28;20142;-67
2023/04/21 04:30:20;;;;;;;79.50;44.22;;;;;;;6.32;100.00;101211.84;5223694;28;20029;-66
2023/04/21 04:32:51;;;;;;;84.30;45.90;;;;;;;6.24;100.00;101216.72;5218678;28;20048;-66
2023/04/21 04:35:23;;;;;;;83.50;44.00;;;;;;;6.26;100.00;101210.38;5226987;28;20087;-67
2023/04/21 04:37:55;;;;;;;83.18;44.58;;;;;;;6.36;100.00;101205.44;5226915;28;20036;-67
2023/04/21 04:40:28;;;;;;;81.90;43.70;;;;;;;6.35;100.00;101211.69;5237327;28;20036;-67
2023/04/21 04:43:01;;;;;;;81.05;43.63;;;;;;;6.39;100.00;101215.91;5227592;28;20120;-67
2023/04/21 04:45:32;;;;;;;85.97;46.10;;;;;;;6.36;100.00;101224.00;5226859;28;20017;-67
2023/04/21 04:48:04;;;;;;;82.88;45.65;;;;;;;6.39;100.00;101226.50;5228072;28;20024;-67
2023/04/21 04:50:36;;;;;;;78.82;44.67;;;;;;;6.40;100.00;101222.91;5237305;28;20411;-67
2023/04/21 04:53:07;;;;;;;82.13;44.78;;;;;;;6.44;100.00;101223.59;5230311;28;20033;-67
2023/04/21 04:55:38;;;;;;;81.28;44.38;;;;;;;6.42;100.00;101226.34;5240902;28;20344;-67
2023/04/21 04:58:10;;;;;;;81.78;43.13;;;;;;;6.52;100.00;101224.06;5238490;28;20037;-67
2023/04/21 05:00:41;;;;;;;90.25;44.63;;;;;;;6.42;100.00;101223.69;5224817;28;20427;-67
2023/04/21 05:03:13;;;;;;;86.90;46.15;;;;;;;6.52;100.00;101225.84;5230672;28;20403;-67
2023/04/21 05:05:45;;;;;;;92.70;46.88;;;;;;;6.45;100.00;101230.63;5227739;28;20025;-67
2023/04/21 05:08:16;;;;;;;92.38;45.97;;;;;;;6.46;100.00;101224.38;5229701;28;20025;-67
2023/04/21 05:10:47;;;;;;;93.55;48.15;;;;;;;6.43;100.00;101220.09;5232475;28;20380;-67
2023/04/21 05:13:19;;;;;;;88.82;48.17;;;;;;;6.51;100.00;101224.13;5232125;28;20032;-67
2023/04/21 05:15:56;;;;;;;96.63;50.08;;;;;;;6.57;100.00;101232.59;5231420;28;20088;-70
2023/04/21 05:18:28;;;;;;;101.70;50.22;;;;;;;6.54;100.00;101231.91;5227138;28;20029;-67
2023/04/21 05:20:59;;;;;;;103.85;51.75;;;;;;;6.61;100.00;101228.00;5231599;28;20036;-67
2023/04/21 05:23:31;;;;;;;104.43;52.45;;;;;;;6.59;100.00;101235.19;5228022;28;20041;-67
2023/04/21 05:26:02;;;;;;;99.13;49.80;;;;;;;6.65;100.00;101240.16;5238114;28;20108;-66
2023/04/21 05:28:34;;;;;;;110.82;51.45;;;;;;;6.67;100.00;101244.44;5230373;28;20150;-67
2023/04/21 05:31:06;;;;;;;108.22;52.53;;;;;;;6.67;100.00;101251.53;5226386;28;20144;-67
2023/04/21 05:33:37;;;;;;;107.97;53.22;;;;;;;6.76;100.00;101248.38;5222480;28;20061;-67
2023/04/21 05:36:09;;;;;;;110.18;54.30;;;;;;;6.78;100.00;101250.97;5222988;28;20033;-67
2023/04/21 05:38:41;;;;;;;112.05;53.65;;;;;;;6.76;100.00;101259.00;5223961;28;20060;-67
2023/04/21 05:41:12;;;;;;;103.30;51.72;;;;;;;6.81;100.00;101249.00;5227448;28;20081;-67
2023/04/21 05:43:43;;;;;;;101.88;51.58;;;;;;;6.87;100.00;101253.97;5224222;28;20125;-66
2023/04/21 05:46:15;;;;;;;105.22;53.50;;;;;;;6.95;100.00;101253.53;5223835;28;20388;-67
2023/04/21 05:48:46;;;;;;;104.63;53.70;;;;;;;6.91;100.00;101253.81;5223514;28;20049;-67
2023/04/21 05:51:17;;;;;;;111.57;54.80;;;;;;;6.95;100.00;101260.66;5225010;28;20021;-67
2023/04/21 05:53:49;;;;;;;114.65;55.38;;;;;;;6.99;100.00;101262.19;5229293;28;20025;-67
2023/04/21 05:56:21;;;;;;;105.35;54.22;;;;;;;6.95;100.00;101250.03;5226463;28;20290;-67
2023/04/21 05:58:52;;;;;;;99.63;53.88;;;;;;;6.99;100.00;101256.88;5221108;28;20373;-67
2023/04/21 06:01:24;;;;;;;100.68;51.67;;;;;;;7.04;100.00;101258.34;5221958;28;20415;-67
2023/04/21 06:03:55;;;;;;;102.05;53.05;;;;;;;7.01;100.00;101255.84;5224763;28;20025;-67
2023/04/21 06:06:27;;;;;;;105.97;52.63;;;;;;;7.07;100.00;101258.16;5220056;28;20052;-67
2023/04/21 06:08:58;;;;;;;106.15;54.13;;;;;;;7.17;100.00;101244.41;5225406;28;20492;-67
2023/04/21 06:11:30;;;;;;;98.07;52.22;;;;;;;7.17;100.00;101247.94;5220754;28;20452;-66
2023/04/21 06:14:01;;;;;;;104.38;53.08;;;;;;;7.28;100.00;101243.81;5225449;28;20086;-66
2023/04/21 06:16:33;;;;;;;102.55;52.45;;;;;;;7.29;100.00;101245.50;5223407;28;20043;-67
2023/04/21 06:19:04;;;;;;;100.88;52.65;;;;;;;7.29;100.00;101241.06;5226557;28;20025;-67
2023/04/21 06:21:35;;;;;;;94.45;51.00;;;;;;;7.36;100.00;101245.06;5220056;28;20543;-67
2023/04/21 06:24:08;;;;;;;101.03;52.40;;;;;;;7.44;100.00;101242.84;5218217;28;20462;-67
2023/04/21 06:26:39;;;;;;;101.90;52.30;;;;;;;7.50;100.00;101246.06;5227920;28;20023;-67
2023/04/21 06:29:10;;;;;;;99.55;50.58;;;;;;;7.61;100.00;101236.56;5218368;28;20029;-66
2023/04/21 06:31:42;;;;;;;102.78;52.15;;;;;;;7.66;100.00;101255.75;5234011;28;20051;-67
2023/04/21 06:34:13;;;;;;;96.30;50.63;;;;;;;7.69;100.00;101254.72;5226505;28;20036;-67
2023/04/21 06:36:44;;;;;;;94.88;51.20;;;;;;;7.77;100.00;101257.78;5223829;28;20053;-67
2023/04/21 06:39:16;;;;;;;93.95;51.40;;;;;;;7.78;100.00;101263.94;5219010;28;20120;-67
2023/04/21 06:41:47;;;;;;;89.63;50.50;;;;;;;7.90;100.00;101255.28;5234765;28;20029;-67
2023/04/21 06:44:19;;;;;;;85.78;50.42;;;;;;;7.85;100.00;101257.34;5224972;28;20036;-66
2023/04/21 06:46:50;;;;;;;87.10;49.25;;;;;;;7.90;100.00;101259.72;5227396;28;20051;-67
2023/04/21 06:49:21;;;;;;;85.97;49.05;;;;;;;7.98;100.00;101249.50;5218828;28;20468;-67
2023/04/21 06:51:53;;;;;;;77.93;45.85;;;;;;;8.02;100.00;101249.22;5225969;28;20033;-67
2023/04/21 06:54:24;;;;;;;82.60;48.30;;;;;;;8.07;100.00;101250.75;5237999;28;20028;-67
2023/04/21 06:56:56;;;;;;;83.03;47.45;;;;;;;8.14;100.00;101257.41;5229356;28;20030;-66
2023/04/21 06:59:27;;;;;;;83.47;46.45;;;;;;;8.23;100.00;101255.06;5228617;28;20029;-66
2023/04/21 07:01:59;;;;;;;76.97;46.72;;;;;;;8.25;100.00;101258.47;5225834;28;20037;-66
2023/04/21 07:04:31;;;;;;;78.50;46.90;;;;;;;8.35;100.00;101249.97;5223959;28;20484;-66
2023/04/21 07:07:02;;;;;;;84.03;46.63;;;;;;;8.40;100.00;101250.53;5226373;28;20021;-66
2023/04/21 07:09:33;;;;;;;76.00;46.97;;;;;;;8.36;100.00;101249.88;5226203;28;20115;-66
2023/04/21 07:12:05;;;;;;;73.68;46.40;;;;;;;8.49;100.00;101247.31;5229261;28;20033;-66
2023/04/21 07:14:36;;;;;;;75.32;46.85;;;;;;;8.53;100.00;101248.84;5229445;28;20124;-66
2023/04/21 07:17:07;;;;;;;76.43;47.13;;;;;;;8.57;100.00;101250.38;5231817;28;20030;-66
2023/04/21 07:19:39;;;;;;;71.60;44.38;;;;;;;8.68;100.00;101241.72;5225933;28;20436;-66
2023/04/21 07:22:10;;;;;;;58.00;39.97;;;;;;;8.69;100.00;101248.78;5225187;28;20480;-66
2023/04/21 07:24:42;;;;;;;61.83;40.88;;;;;;;8.72;100.00;101245.06;5229408;28;20029;-66
2023/04/21 07:27:13;;;;;;;66.57;42.33;;;;;;;8.85;100.00;101253.13;5227812;28;20036;-66
2023/04/21 07:29:44;;;;;;;60.42;39.90;;;;;;;8.87;100.00;101248.56;5230099;28;20028;-66
2023/04/21 07:32:16;;;;;;;55.15;37.92;;;;;;;8.94;100.00;101244.59;5224029;28;20202;-67
2023/04/21 07:34:47;;;;;;;52.05;35.95;;;;;;;8.96;100.00;101238.19;5223326;28;20064;-66
2023/04/21 07:37:20;;;;;;;51.97;36.20;;;;;;;9.08;100.00;101236.56;5228961;28;20053;-67
2023/04/21 07:39:52;;;;;;;49.90;35.38;;;;;;;9.19;100.00;101233.22;5229128;28;20029;-66
2023/04/21 07:42:25;;;;;;;48.58;33.83;;;;;;;9.14;100.00;101230.84;5228999;28;20037;-67
2023/04/21 07:44:56;;;;;;;46.47;33.87;;;;;;;9.27;100.00;101228.25;5227212;28;20130;-67
2023/04/21 07:47:28;;;;;;;38.13;26.98;;;;;;;9.34;100.00;101220.69;5232902;28;20033;-67
2023/04/21 07:50:00;;;;;;;39.47;29.85;;;;;;;9.39;100.00;101215.94;5229016;28;20087;-67
2023/04/21 07:52:31;;;;;;;34.65;25.50;;;;;;;9.40;100.00;101215.00;5228463;28;20025;-67
2023/04/21 07:55:03;;;;;;;37.35;27.83;;;;;;;9.44;100.00;101215.66;5232156;28;20037;-67
2023/04/21 07:57:37;;;;;;;37.03;27.35;;;;;;;9.46;100.00;101217.25;5231719;28;20456;-67
2023/04/21 08:00:10;;;;;;;36.03;26.10;;;;;;;9.49;100.00;101217.06;5223134;28;20079;-67
2023/04/21 08:02:41;;;;;;;36.13;27.40;;;;;;;9.55;100.00;101224.63;5241070;28;20040;-66
2023/04/21 08:05:12;;;;;;;40.15;29.05;;;;;;;9.60;100.00;101211.84;5227403;28;20024;-67
2023/04/21 08:07:44;;;;;;;36.15;26.75;;;;;;;9.62;100.00;101212.59;5233086;28;20021;-67
2023/04/21 08:10:16;;;;;;;32.95;25.02;;;;;;;9.70;100.00;101204.09;5226779;28;20033;-67
2023/04/21 08:12:47;;;;;;;33.40;25.15;;;;;;;9.86;100.00;101208.41;5226273;28;20036;-67
2023/04/21 08:15:18;;;;;;;32.50;24.95;;;;;;;9.88;100.00;101202.00;5219930;28;20410;-67
2023/04/21 08:17:50;;;;;;;34.35;25.67;;;;;;;9.93;100.00;101209.69;5223745;28;20032;-66
2023/04/21 08:20:21;;;;;;;33.47;26.45;;;;;;;9.93;100.00;101202.56;5228042;28;20123;-67
2023/04/21 08:22:53;;;;;;;28.15;21.92;;;;;;;10.01;100.00;101202.88;5235726;28;20030;-67
2023/04/21 08:25:24;;;;;;;28.05;20.23;;;;;;;10.20;100.00;101204.25;5220691;28;20332;-67
2023/04/21 08:27:56;;;;;;;30.02;22.80;;;;;;;10.13;100.00;101208.34;5232290;28;20092;-67
2023/04/21 08:30:27;;;;;;;28.58;22.40;;;;;;;10.15;100.00;101206.41;5234247;28;20124;-67
2023/04/21 08:32:59;;;;;;;27.52;22.48;;;;;;;10.25;100.00;101199.47;5231918;28;20030;-67
2023/04/21 08:35:30;;;;;;;26.45;21.00;;;;;;;10.30;100.00;101204.50;5227855;28;20037;-67
2023/04/21 08:38:02;;;;;;;27.80;21.70;;;;;;;10.48;100.00;101194.38;5232463;28;20031;-67
2023/04/21 08:40:35;;;;;;;27.67;21.02;;;;;;;10.44;100.00;101200.91;5227247;28;20025;-67
2023/04/21 08:43:07;;;;;;;26.30;20.40;;;;;;;10.56;100.00;101192.00;5226721;28;20034;-67
2023/04/21 08:45:40;;;;;;;25.70;20.42;;;;;;;10.51;100.00;101196.84;5234376;28;20891;-67
2023/04/21 08:48:15;;;;;;;27.23;20.98;;;;;;;10.65;100.00;101187.84;5225552;28;20192;-67
2023/04/21 08:50:49;;;;;;;27.48;21.30;;;;;;;10.68;100.00;101192.94;5233807;28;20048;-67
2023/04/21 08:53:21;;;;;;;23.25;18.83;;;;;;;10.73;100.00;101191.66;5228469;28;20029;-67
2023/04/21 08:55:54;;;;;;;23.23;18.17;;;;;;;10.85;100.00;101181.91;5223827;28;20040;-67
2023/04/21 08:58:25;;;;;;;21.63;17.17;;;;;;;11.03;100.00;101181.56;5232226;28;20036;-67
2023/04/21 09:00:57;;;;;;;21.73;17.70;;;;;;;11.09;100.00;101173.09;5238906;28;20116;-67
2023/04/21 09:03:30;;;;;;;22.48;17.98;;;;;;;11.17;100.00;101186.72;5235204;28;20061;-67
2023/04/21 09:06:06;;;;;;;20.75;16.85;;;;;;;11.19;100.00;101180.31;5226619;28;20059;-67
2023/04/21 09:08:41;;;;;;;20.17;16.45;;;;;;;11.36;100.00;101172.88;5227087;28;20521;-67
2023/04/21 09:11:13;;;;;;;20.83;16.02;;;;;;;11.54;100.00;101165.28;5236957;28;20547;-67
2023/04/21 09:13:45;;;;;;;19.70;16.58;;;;;;;11.43;100.00;101168.78;5227659;28;20069;-67
2023/04/21 09:16:21;;;;;;;19.63;15.50;;;;;;;11.60;100.00;101167.47;5236815;28;20426;-67
2023/04/21 09:18:52;;;;;;;17.27;14.63;;;;;;;11.78;100.00;101165.25;5238399;28;20079;-67
2023/04/21 09:21:27;;;;;;;18.67;14.80;;;;;;;12.00;100.00;101160.94;5228857;28;20423;-67
2023/04/21 09:24:05;;;;;;;19.77;15.93;;;;;;;12.13;100.00;101159.03;5225663;28;20037;-67
2023/04/21 09:26:37;;;;;;;19.30;14.70;;;;;;;12.22;100.00;101157.47;5236788;28;20087;-67
2023/04/21 09:29:08;;;;;;;16.45;13.73;;;;;;;12.33;100.00;101157.44;5233657;28;20033;-67
2023/04/21 09:31:42;;;;;;;18.33;14.50;;;;;;;12.53;100.00;101153.22;5238459;28;20028;-67
2023/04/21 09:34:19;;;;;;;21.85;16.92;;;;;;;12.55;100.00;101162.81;5231568;28;20017;-67
2023/04/21 09:37:01;;;;;;;20.30;16.73;;;;;;;12.58;100.00;101158.19;5231444;28;20049;-67
2023/04/21 09:39:32;;;;;;;17.33;15.02;;;;;;;12.79;100.00;101163.63;5231394;28;20025;-67
2023/04/21 09:42:04;;;;;;;14.90;12.38;;;;;;;12.89;100.00;101151.22;5234295;28;20033;-67
2023/04/21 09:44:37;;;;;;;13.95;11.10;;;;;;;13.16;100.00;101152.63;5235255;28;20387;-67
2023/04/21 09:47:11;;;;;;;16.05;11.82;;;;;;;13.21;100.00;101159.31;5230660;28;20113;-67
2023/04/21 09:49:43;;;;;;;13.82;11.50;;;;;;;13.33;100.00;101146.75;5235085;28;20029;-67
2023/04/21 09:52:17;;;;;;;14.40;11.27;;;;;;;13.52;100.00;101146.88;5229889;28;20415;-66
2023/04/21 09:54:51;;;;;;;13.27;11.02;;;;;;;13.55;100.00;101140.41;5238001;28;20057;-66
2023/04/21 09:57:25;;;;;;;13.88;10.82;;;;;;;13.61;100.00;101137.19;5230262;28;20160;-66
2023/04/21 10:00:10;;;;;;;11.93;9.00;;;;;;;13.68;100.00;101133.03;5233151;28;20021;-67
2023/04/21 10:02:50;;;;;;;13.85;10.00;;;;;;;13.72;100.00;101131.78;5232577;28;20042;-66
2023/04/21 10:05:21;;;;;;;12.30;9.70;;;;;;;13.85;100.00;101136.13;5227305;28;20061;-66
2023/04/21 10:07:53;;;;;;;12.00;10.43;;;;;;;13.98;100.00;101135.88;5236406;28;20111;-66
2023/04/21 10:10:32;;;;;;;12.43;10.20;;;;;;;14.11;100.00;101134.72;5226148;28;20034;-66
2023/04/21 10:13:03;;;;;;;13.52;10.60;;;;;;;14.24;100.00;101130.94;5227413;28;20018;-66
2023/04/21 10:15:40;;;;;;;12.57;10.35;;;;;;;14.55;100.00;101121.03;5236832;28;20444;-66
2023/04/21 10:18:20;;;;;;;17.55;14.60;;;;;;;14.65;100.00;101116.59;5225590;28;20025;-67
2023/04/21 10:20:57;;;;;;;17.25;14.65;;;;;;;14.65;100.00;101113.91;5224826;28;20477;-67
2023/04/21 10:23:37;;;;;;;17.10;15.30;;;;;;;14.51;100.00;101114.22;5231114;28;20430;-67
2023/04/21 10:26:10;;;;;;;16.88;14.38;;;;;;;14.38;100.00;101119.00;5229727;28;20021;-67
2023/04/21 10:28:56;;;;;;;17.13;14.05;;;;;;;14.27;100.00;101112.75;5227243;28;20117;-68
2023/04/21 10:31:43;;;;;;;17.13;13.70;;;;;;;14.45;100.00;101107.56;5220963;28;20040;-67
2023/04/21 10:34:16;;;;;;;16.27;13.50;;;;;;;14.37;100.00;101109.25;5230197;28;20030;-67
2023/04/21 10:37:06;;;;;;;18.10;14.90;;;;;;;14.48;100.00;101095.72;5228592;28;20029;-67
2023/04/21 10:39:50;;;;;;;15.50;13.05;;;;;;;14.56;100.00;101089.69;5232225;28;20029;-67
2023/04/21 10:42:26;;;;;;;14.23;11.88;;;;;;;14.56;100.00;101092.38;5233238;28;20052;-67
2023/04/21 10:44:57;;;;;;;15.77;12.57;;;;;;;14.65;100.00;101088.84;5233730;28;20104;-67
2023/04/21 10:47:36;;;;;;;15.40;13.55;;;;;;;14.59;100.00;101084.88;5235654;28;20131;-67
2023/04/21 10:50:14;;;;;;;15.23;13.63;;;;;;;14.65;100.00;101081.69;5234788;28;20499;-67
2023/04/21 10:52:52;;;;;;;15.70;13.27;;;;;;;14.67;100.00;101085.06;5224747;28;20078;-67
2023/04/21 10:55:28;;;;;;;15.88;13.10;;;;;;;14.66;100.00;101075.28;5231825;28;20037;-67
2023/04/21 10:58:05;;;;;;;15.57;12.60;;;;;;;14.72;100.00;101078.44;5230556;28;20116;-67
2023/04/21 11:00:37;;;;;;;14.93;12.57;;;;;;;14.70;100.00;101076.72;5234229;28;20172;-67
2023/04/21 11:03:09;;;;;;;16.30;12.50;;;;;;;14.74;100.00;101068.41;5229958;28;20045;-67
2023/04/21 11:05:40;;;;;;;15.45;12.10;;;;;;;14.90;100.00;101074.09;5226610;28;20034;-67
2023/04/21 11:08:14;;;;;;;13.93;12.32;;;;;;;14.89;100.00;101073.22;5234298;28;20033;-68
2023/04/21 11:10:52;;;;;;;14.90;12.30;;;;;;;14.96;100.00;101062.78;5231715;28;20029;-69
2023/04/21 11:13:27;;;;;;;11.82;10.50;;;;;;;15.03;100.00;101065.72;5229071;28;20031;-67
2023/04/21 11:16:04;;;;;;;14.38;11.50;;;;;;;15.08;100.00;101053.56;5228559;28;20064;-68
2023/04/21 11:18:40;;;;;;;12.98;11.05;;;;;;;15.18;100.00;101050.03;5226416;28;20038;-68
2023/04/21 11:21:16;;;;;;;13.25;11.30;;;;;;;15.16;100.00;101046.63;5232242;28;20021;-68
2023/04/21 11:23:49;;;;;;;14.02;11.98;;;;;;;15.19;100.00;101044.53;5233536;28;20364;-68
2023/04/21 11:26:37;;;;;;;13.90;9.73;;;;;;;15.31;100.00;101039.84;5232140;28;20072;-68
2023/04/21 11:29:10;;;;;;;12.10;9.63;;;;;;;15.27;100.00;101036.56;5235653;28;20020;-68
2023/04/21 11:31:45;;;;;;;12.82;9.32;;;;;;;15.16;100.00;101033.19;5234959;28;20029;-68